Terminal Aerodrome Forecast
Issued by NWS

Home | Current Version | Previous Version | Text Only | Print | Product List | Glossary Off
Versions: 1 2 3 4 5 6 7 8 9 10 11 12 13 14 15 16 17 18 19 20 21 22 23

050
FTUS43 KTOP 132320
TAFFOE
TAF
KFOE 132320Z 1400/1424 07007KT P6SM SCT023 OVC040
     FM140300 01006KT P6SM OVC022=

USA.gov is the U.S. government's official web portal to all federal, state and local government web resources and services.